sensor_id;sensor_type;location;lat;lon;timestamp;P1;durP1;ratioP1;P2;durP2;ratioP2
42866;SDS011;39461;40.948;73.006;2022-11-15T00:01:51;14.45;;;8.35;;
42866;SDS011;39461;40.948;73.006;2022-11-15T00:04:24;13.80;;;8.50;;
42866;SDS011;39461;40.948;73.006;2022-11-15T00:06:57;20.13;;;11.88;;
42866;SDS011;39461;40.948;73.006;2022-11-15T00:09:32;21.33;;;13.05;;
42866;SDS011;39461;40.948;73.006;2022-11-15T00:12:09;20.08;;;12.32;;
42866;SDS011;39461;40.948;73.006;2022-11-15T00:14:43;20.52;;;13.52;;
42866;SDS011;39461;40.948;73.006;2022-11-15T00:17:22;23.00;;;12.63;;
42866;SDS011;39461;40.948;73.006;2022-11-15T00:19:59;22.42;;;12.65;;
42866;SDS011;39461;40.948;73.006;2022-11-15T00:22:38;15.43;;;10.90;;
42866;SDS011;39461;40.948;73.006;2022-11-15T00:25:12;37.38;;;20.63;;
42866;SDS011;39461;40.948;73.006;2022-11-15T00:27:45;39.50;;;21.70;;
42866;SDS011;39461;40.948;73.006;2022-11-15T00:30:19;38.42;;;19.75;;
42866;SDS011;39461;40.948;73.006;2022-11-15T00:33:03;30.58;;;16.45;;
42866;SDS011;39461;40.948;73.006;2022-11-15T00:35:39;26.40;;;15.48;;
42866;SDS011;39461;40.948;73.006;2022-11-15T00:38:14;35.72;;;20.48;;
42866;SDS011;39461;40.948;73.006;2022-11-15T00:40:58;52.45;;;32.85;;
42866;SDS011;39461;40.948;73.006;2022-11-15T00:43:31;40.20;;;22.10;;
42866;SDS011;39461;40.948;73.006;2022-11-15T00:46:05;34.45;;;20.10;;
42866;SDS011;39461;40.948;73.006;2022-11-15T00:48:40;33.00;;;20.67;;
42866;SDS011;39461;40.948;73.006;2022-11-15T00:51:09;37.17;;;22.65;;
42866;SDS011;39461;40.948;73.006;2022-11-15T00:53:42;36.92;;;22.05;;
42866;SDS011;39461;40.948;73.006;2022-11-15T00:56:15;46.05;;;27.45;;
42866;SDS011;39461;40.948;73.006;2022-11-15T00:58:51;48.53;;;28.70;;
42866;SDS011;39461;40.948;73.006;2022-11-15T01:01:18;49.08;;;32.38;;
42866;SDS011;39461;40.948;73.006;2022-11-15T01:03:52;53.50;;;33.22;;
42866;SDS011;39461;40.948;73.006;2022-11-15T01:06:25;50.03;;;30.42;;
42866;SDS011;39461;40.948;73.006;2022-11-15T01:09:02;50.72;;;29.38;;
42866;SDS011;39461;40.948;73.006;2022-11-15T01:11:38;60.65;;;34.58;;
42866;SDS011;39461;40.948;73.006;2022-11-15T01:17:12;76.53;;;43.97;;
42866;SDS011;39461;40.948;73.006;2022-11-15T01:19:45;72.90;;;44.08;;
42866;SDS011;39461;40.948;73.006;2022-11-15T01:22:18;72.43;;;42.50;;
42866;SDS011;39461;40.948;73.006;2022-11-15T01:24:51;81.70;;;46.63;;
42866;SDS011;39461;40.948;73.006;2022-11-15T01:27:24;79.70;;;47.85;;
42866;SDS011;39461;40.948;73.006;2022-11-15T01:29:58;84.40;;;49.35;;
42866;SDS011;39461;40.948;73.006;2022-11-15T01:32:31;78.70;;;43.72;;
42866;SDS011;39461;40.948;73.006;2022-11-15T01:35:06;69.25;;;40.75;;
42866;SDS011;39461;40.948;73.006;2022-11-15T01:37:39;60.78;;;36.97;;
42866;SDS011;39461;40.948;73.006;2022-11-15T01:40:18;56.60;;;35.10;;
42866;SDS011;39461;40.948;73.006;2022-11-15T01:42:52;76.63;;;41.45;;
42866;SDS011;39461;40.948;73.006;2022-11-15T01:45:25;84.68;;;48.95;;
42866;SDS011;39461;40.948;73.006;2022-11-15T01:47:59;99.05;;;54.67;;
42866;SDS011;39461;40.948;73.006;2022-11-15T01:50:34;106.65;;;59.65;;
42866;SDS011;39461;40.948;73.006;2022-11-15T01:53:07;107.10;;;59.30;;
42866;SDS011;39461;40.948;73.006;2022-11-15T01:55:44;99.07;;;54.40;;
42866;SDS011;39461;40.948;73.006;2022-11-15T01:58:21;99.72;;;57.97;;
42866;SDS011;39461;40.948;73.006;2022-11-15T02:00:57;112.68;;;65.85;;
42866;SDS011;39461;40.948;73.006;2022-11-15T02:04:05;92.80;;;56.15;;
42866;SDS011;39461;40.948;73.006;2022-11-15T02:06:33;92.13;;;51.05;;
42866;SDS011;39461;40.948;73.006;2022-11-15T02:09:09;87.20;;;51.05;;
42866;SDS011;39461;40.948;73.006;2022-11-15T02:11:46;93.18;;;55.67;;
42866;SDS011;39461;40.948;73.006;2022-11-15T02:14:21;105.57;;;59.88;;
42866;SDS011;39461;40.948;73.006;2022-11-15T02:19:52;106.32;;;61.15;;
42866;SDS011;39461;40.948;73.006;2022-11-15T02:25:18;120.55;;;73.07;;
42866;SDS011;39461;40.948;73.006;2022-11-15T02:39:00;187.35;;;106.85;;
42866;SDS011;39461;40.948;73.006;2022-11-15T02:49:47;218.15;;;125.97;;
42866;SDS011;39461;40.948;73.006;2022-11-15T02:52:16;223.82;;;126.97;;
42866;SDS011;39461;40.948;73.006;2022-11-15T02:54:55;212.75;;;126.68;;
42866;SDS011;39461;40.948;73.006;2022-11-15T03:07:57;246.57;;;143.23;;
42866;SDS011;39461;40.948;73.006;2022-11-15T03:13:27;247.70;;;142.27;;
42866;SDS011;39461;40.948;73.006;2022-11-15T03:18:38;256.17;;;144.90;;
42866;SDS011;39461;40.948;73.006;2022-11-15T03:21:17;266.27;;;150.57;;
42866;SDS011;39461;40.948;73.006;2022-11-15T03:23:58;266.10;;;151.07;;
42866;SDS011;39461;40.948;73.006;2022-11-15T03:26:36;271.98;;;155.45;;
42866;SDS011;39461;40.948;73.006;2022-11-15T03:29:14;264.02;;;159.55;;
42866;SDS011;39461;40.948;73.006;2022-11-15T03:31:54;277.80;;;159.35;;
42866;SDS011;39461;40.948;73.006;2022-11-15T03:37:03;278.30;;;159.20;;
42866;SDS011;39461;40.948;73.006;2022-11-15T03:39:39;280.35;;;158.50;;
42866;SDS011;39461;40.948;73.006;2022-11-15T03:44:58;271.98;;;155.32;;
42866;SDS011;39461;40.948;73.006;2022-11-15T03:47:45;268.08;;;151.77;;
42866;SDS011;39461;40.948;73.006;2022-11-15T03:50:21;259.40;;;145.85;;
42866;SDS011;39461;40.948;73.006;2022-11-15T03:52:57;229.38;;;132.77;;
42866;SDS011;39461;40.948;73.006;2022-11-15T03:55:31;237.52;;;141.55;;
42866;SDS011;39461;40.948;73.006;2022-11-15T03:58:05;229.63;;;131.32;;
42866;SDS011;39461;40.948;73.006;2022-11-15T04:00:40;239.70;;;136.13;;
42866;SDS011;39461;40.948;73.006;2022-11-15T04:03:14;225.60;;;132.40;;
42866;SDS011;39461;40.948;73.006;2022-11-15T04:05:52;209.65;;;124.40;;
42866;SDS011;39461;40.948;73.006;2022-11-15T04:08:28;220.93;;;129.13;;
42866;SDS011;39461;40.948;73.006;2022-11-15T04:11:03;214.80;;;128.10;;
42866;SDS011;39461;40.948;73.006;2022-11-15T04:13:36;195.90;;;118.35;;
42866;SDS011;39461;40.948;73.006;2022-11-15T04:16:09;209.75;;;122.22;;
42866;SDS011;39461;40.948;73.006;2022-11-15T04:18:47;194.75;;;115.90;;
42866;SDS011;39461;40.948;73.006;2022-11-15T04:21:42;201.95;;;119.80;;
42866;SDS011;39461;40.948;73.006;2022-11-15T04:24:34;209.40;;;124.13;;
42866;SDS011;39461;40.948;73.006;2022-11-15T04:27:09;198.68;;;119.30;;
42866;SDS011;39461;40.948;73.006;2022-11-15T04:29:44;183.75;;;108.28;;
42866;SDS011;39461;40.948;73.006;2022-11-15T04:32:18;176.60;;;105.28;;
42866;SDS011;39461;40.948;73.006;2022-11-15T04:34:53;167.98;;;97.90;;
42866;SDS011;39461;40.948;73.006;2022-11-15T04:37:26;160.48;;;99.45;;
42866;SDS011;39461;40.948;73.006;2022-11-15T04:39:59;164.75;;;99.57;;
42866;SDS011;39461;40.948;73.006;2022-11-15T04:42:34;158.20;;;98.38;;
42866;SDS011;39461;40.948;73.006;2022-11-15T04:45:06;144.95;;;87.30;;
42866;SDS011;39461;40.948;73.006;2022-11-15T04:47:44;146.98;;;87.47;;
42866;SDS011;39461;40.948;73.006;2022-11-15T04:50:12;142.18;;;88.85;;
42866;SDS011;39461;40.948;73.006;2022-11-15T04:52:43;138.43;;;85.03;;
42866;SDS011;39461;40.948;73.006;2022-11-15T04:55:10;144.35;;;83.93;;
42866;SDS011;39461;40.948;73.006;2022-11-15T04:57:43;144.75;;;89.78;;
42866;SDS011;39461;40.948;73.006;2022-11-15T05:00:17;198.30;;;119.05;;
42866;SDS011;39461;40.948;73.006;2022-11-15T05:02:52;190.60;;;115.95;;
42866;SDS011;39461;40.948;73.006;2022-11-15T05:05:44;187.40;;;118.28;;
42866;SDS011;39461;40.948;73.006;2022-11-15T05:08:17;193.73;;;113.72;;
42866;SDS011;39461;40.948;73.006;2022-11-15T05:10:52;182.80;;;111.28;;
42866;SDS011;39461;40.948;73.006;2022-11-15T05:13:27;182.23;;;108.55;;
42866;SDS011;39461;40.948;73.006;2022-11-15T05:16:02;179.18;;;111.05;;
42866;SDS011;39461;40.948;73.006;2022-11-15T05:18:38;179.38;;;108.95;;
42866;SDS011;39461;40.948;73.006;2022-11-15T05:21:13;171.07;;;105.70;;
42866;SDS011;39461;40.948;73.006;2022-11-15T05:23:50;185.05;;;106.18;;
42866;SDS011;39461;40.948;73.006;2022-11-15T05:26:23;172.23;;;106.03;;
42866;SDS011;39461;40.948;73.006;2022-11-15T05:28:58;183.90;;;109.53;;
42866;SDS011;39461;40.948;73.006;2022-11-15T05:31:34;171.68;;;106.10;;
42866;SDS011;39461;40.948;73.006;2022-11-15T05:34:13;165.07;;;103.90;;
42866;SDS011;39461;40.948;73.006;2022-11-15T05:36:52;176.05;;;103.95;;
42866;SDS011;39461;40.948;73.006;2022-11-15T05:39:26;171.77;;;107.15;;
42866;SDS011;39461;40.948;73.006;2022-11-15T05:42:00;167.90;;;103.00;;
42866;SDS011;39461;40.948;73.006;2022-11-15T05:44:43;169.80;;;106.85;;
42866;SDS011;39461;40.948;73.006;2022-11-15T05:47:22;166.18;;;104.60;;
42866;SDS011;39461;40.948;73.006;2022-11-15T05:49:58;167.68;;;102.03;;
42866;SDS011;39461;40.948;73.006;2022-11-15T05:52:33;157.57;;;99.38;;
42866;SDS011;39461;40.948;73.006;2022-11-15T05:55:08;164.60;;;106.85;;
42866;SDS011;39461;40.948;73.006;2022-11-15T05:57:42;156.90;;;99.75;;
42866;SDS011;39461;40.948;73.006;2022-11-15T06:00:17;157.80;;;102.15;;
42866;SDS011;39461;40.948;73.006;2022-11-15T06:02:52;164.25;;;102.63;;
42866;SDS011;39461;40.948;73.006;2022-11-15T06:05:32;151.80;;;96.30;;
42866;SDS011;39461;40.948;73.006;2022-11-15T06:08:05;156.13;;;96.65;;
42866;SDS011;39461;40.948;73.006;2022-11-15T06:13:37;145.35;;;94.68;;
42866;SDS011;39461;40.948;73.006;2022-11-15T06:16:10;153.35;;;98.18;;
42866;SDS011;39461;40.948;73.006;2022-11-15T06:18:43;151.57;;;96.22;;
42866;SDS011;39461;40.948;73.006;2022-11-15T06:21:16;154.60;;;95.55;;
42866;SDS011;39461;40.948;73.006;2022-11-15T06:23:49;148.43;;;95.80;;
42866;SDS011;39461;40.948;73.006;2022-11-15T06:26:22;140.32;;;90.53;;
42866;SDS011;39461;40.948;73.006;2022-11-15T06:28:58;145.25;;;91.97;;
42866;SDS011;39461;40.948;73.006;2022-11-15T06:31:31;149.57;;;95.85;;
42866;SDS011;39461;40.948;73.006;2022-11-15T06:34:04;143.82;;;92.25;;
42866;SDS011;39461;40.948;73.006;2022-11-15T06:36:38;143.00;;;95.10;;
42866;SDS011;39461;40.948;73.006;2022-11-15T06:39:11;135.40;;;89.75;;
42866;SDS011;39461;40.948;73.006;2022-11-15T06:41:40;145.32;;;95.88;;
42866;SDS011;39461;40.948;73.006;2022-11-15T06:44:13;146.38;;;95.95;;
42866;SDS011;39461;40.948;73.006;2022-11-15T06:46:49;137.20;;;91.57;;
42866;SDS011;39461;40.948;73.006;2022-11-15T06:49:22;142.88;;;92.93;;
42866;SDS011;39461;40.948;73.006;2022-11-15T06:51:49;137.65;;;92.03;;
42866;SDS011;39461;40.948;73.006;2022-11-15T06:54:23;143.95;;;91.50;;
42866;SDS011;39461;40.948;73.006;2022-11-15T06:56:58;142.90;;;92.20;;
42866;SDS011;39461;40.948;73.006;2022-11-15T06:59:31;145.40;;;95.10;;
42866;SDS011;39461;40.948;73.006;2022-11-15T07:02:10;129.93;;;85.60;;
42866;SDS011;39461;40.948;73.006;2022-11-15T07:04:46;142.48;;;88.60;;
42866;SDS011;39461;40.948;73.006;2022-11-15T07:07:21;126.22;;;81.32;;
42866;SDS011;39461;40.948;73.006;2022-11-15T07:09:54;113.10;;;74.55;;
42866;SDS011;39461;40.948;73.006;2022-11-15T07:12:29;100.55;;;67.25;;
42866;SDS011;39461;40.948;73.006;2022-11-15T07:15:02;105.00;;;67.50;;
42866;SDS011;39461;40.948;73.006;2022-11-15T07:20:35;112.07;;;71.35;;
42866;SDS011;39461;40.948;73.006;2022-11-15T07:23:09;135.80;;;87.50;;
42866;SDS011;39461;40.948;73.006;2022-11-15T07:25:42;138.55;;;90.78;;
42866;SDS011;39461;40.948;73.006;2022-11-15T07:28:17;74.47;;;51.60;;
42866;SDS011;39461;40.948;73.006;2022-11-15T07:30:52;67.47;;;43.95;;
42866;SDS011;39461;40.948;73.006;2022-11-15T07:33:27;83.38;;;51.00;;
42866;SDS011;39461;40.948;73.006;2022-11-15T07:36:05;71.57;;;48.45;;
42866;SDS011;39461;40.948;73.006;2022-11-15T07:38:41;65.63;;;41.40;;
42866;SDS011;39461;40.948;73.006;2022-11-15T07:41:17;53.63;;;34.47;;
42866;SDS011;39461;40.948;73.006;2022-11-15T07:43:52;55.22;;;34.95;;
42866;SDS011;39461;40.948;73.006;2022-11-15T07:46:27;60.90;;;40.78;;
42866;SDS011;39461;40.948;73.006;2022-11-15T07:49:04;57.40;;;33.38;;
42866;SDS011;39461;40.948;73.006;2022-11-15T07:51:38;43.50;;;29.73;;
42866;SDS011;39461;40.948;73.006;2022-11-15T07:54:11;44.05;;;29.48;;
42866;SDS011;39461;40.948;73.006;2022-11-15T07:56:50;54.58;;;35.63;;
42866;SDS011;39461;40.948;73.006;2022-11-15T07:59:27;56.13;;;33.83;;
42866;SDS011;39461;40.948;73.006;2022-11-15T08:02:03;52.65;;;34.03;;
42866;SDS011;39461;40.948;73.006;2022-11-15T08:04:38;55.60;;;36.05;;
42866;SDS011;39461;40.948;73.006;2022-11-15T08:07:11;59.20;;;38.45;;
42866;SDS011;39461;40.948;73.006;2022-11-15T08:09:50;55.33;;;35.17;;
42866;SDS011;39461;40.948;73.006;2022-11-15T08:12:24;59.65;;;34.33;;
42866;SDS011;39461;40.948;73.006;2022-11-15T08:15:00;59.65;;;37.17;;
42866;SDS011;39461;40.948;73.006;2022-11-15T08:17:36;57.70;;;36.15;;
42866;SDS011;39461;40.948;73.006;2022-11-15T08:20:10;81.55;;;47.30;;
42866;SDS011;39461;40.948;73.006;2022-11-15T08:22:43;58.42;;;36.97;;
42866;SDS011;39461;40.948;73.006;2022-11-15T08:25:17;68.07;;;42.28;;
42866;SDS011;39461;40.948;73.006;2022-11-15T08:27:59;74.13;;;41.30;;
42866;SDS011;39461;40.948;73.006;2022-11-15T08:30:35;70.03;;;41.00;;
42866;SDS011;39461;40.948;73.006;2022-11-15T08:33:12;67.65;;;40.60;;
42866;SDS011;39461;40.948;73.006;2022-11-15T08:35:47;75.00;;;46.42;;
42866;SDS011;39461;40.948;73.006;2022-11-15T08:38:21;67.60;;;44.95;;
42866;SDS011;39461;40.948;73.006;2022-11-15T08:41:00;79.75;;;49.53;;
42866;SDS011;39461;40.948;73.006;2022-11-15T08:43:36;82.57;;;47.85;;
42866;SDS011;39461;40.948;73.006;2022-11-15T08:46:10;71.20;;;47.63;;
42866;SDS011;39461;40.948;73.006;2022-11-15T08:48:45;85.10;;;51.88;;
42866;SDS011;39461;40.948;73.006;2022-11-15T08:51:12;79.15;;;50.58;;
42866;SDS011;39461;40.948;73.006;2022-11-15T08:53:52;72.85;;;46.28;;
42866;SDS011;39461;40.948;73.006;2022-11-15T08:56:27;75.70;;;46.53;;
42866;SDS011;39461;40.948;73.006;2022-11-15T08:59:04;69.25;;;42.72;;
42866;SDS011;39461;40.948;73.006;2022-11-15T09:01:38;59.13;;;37.97;;
42866;SDS011;39461;40.948;73.006;2022-11-15T09:04:13;65.10;;;39.15;;
42866;SDS011;39461;40.948;73.006;2022-11-15T09:06:46;55.00;;;35.70;;
42866;SDS011;39461;40.948;73.006;2022-11-15T09:09:21;56.40;;;37.03;;
42866;SDS011;39461;40.948;73.006;2022-11-15T09:11:56;59.67;;;38.78;;
42866;SDS011;39461;40.948;73.006;2022-11-15T09:14:39;59.20;;;35.80;;
42866;SDS011;39461;40.948;73.006;2022-11-15T09:17:12;58.72;;;37.20;;
42866;SDS011;39461;40.948;73.006;2022-11-15T09:19:47;63.67;;;39.72;;
42866;SDS011;39461;40.948;73.006;2022-11-15T09:25:21;68.32;;;41.65;;
42866;SDS011;39461;40.948;73.006;2022-11-15T09:27:54;63.03;;;36.72;;
42866;SDS011;39461;40.948;73.006;2022-11-15T09:30:30;75.88;;;46.63;;
42866;SDS011;39461;40.948;73.006;2022-11-15T09:33:06;69.20;;;43.50;;
42866;SDS011;39461;40.948;73.006;2022-11-15T09:35:46;53.33;;;33.95;;
42866;SDS011;39461;40.948;73.006;2022-11-15T09:38:21;58.53;;;36.45;;
42866;SDS011;39461;40.948;73.006;2022-11-15T09:41:14;60.00;;;37.60;;
42866;SDS011;39461;40.948;73.006;2022-11-15T09:46:48;68.10;;;41.42;;
42866;SDS011;39461;40.948;73.006;2022-11-15T09:49:23;60.22;;;38.13;;
42866;SDS011;39461;40.948;73.006;2022-11-15T09:51:56;67.28;;;37.60;;
42866;SDS011;39461;40.948;73.006;2022-11-15T09:54:37;71.53;;;43.88;;
42866;SDS011;39461;40.948;73.006;2022-11-15T09:59:46;79.18;;;44.90;;
42866;SDS011;39461;40.948;73.006;2022-11-15T10:05:04;69.95;;;42.25;;
42866;SDS011;39461;40.948;73.006;2022-11-15T10:10:55;105.72;;;65.55;;
42866;SDS011;39461;40.948;73.006;2022-11-15T10:13:35;77.85;;;49.00;;
42866;SDS011;39461;40.948;73.006;2022-11-15T10:16:15;86.05;;;46.58;;
42866;SDS011;39461;40.948;73.006;2022-11-15T10:21:45;78.05;;;46.88;;
42866;SDS011;39461;40.948;73.006;2022-11-15T10:27:24;75.95;;;45.67;;
42866;SDS011;39461;40.948;73.006;2022-11-15T10:32:58;86.72;;;55.17;;
42866;SDS011;39461;40.948;73.006;2022-11-15T10:35:34;82.13;;;49.80;;
42866;SDS011;39461;40.948;73.006;2022-11-15T10:38:08;68.90;;;41.42;;
42866;SDS011;39461;40.948;73.006;2022-11-15T10:40:42;85.40;;;46.22;;
42866;SDS011;39461;40.948;73.006;2022-11-15T10:43:17;89.43;;;50.63;;
42866;SDS011;39461;40.948;73.006;2022-11-15T10:45:55;94.57;;;55.80;;
42866;SDS011;39461;40.948;73.006;2022-11-15T10:48:32;106.32;;;56.70;;
42866;SDS011;39461;40.948;73.006;2022-11-15T10:50:59;85.45;;;52.67;;
42866;SDS011;39461;40.948;73.006;2022-11-15T10:53:42;94.53;;;57.00;;
42866;SDS011;39461;40.948;73.006;2022-11-15T10:56:17;117.00;;;63.70;;
42866;SDS011;39461;40.948;73.006;2022-11-15T10:58:55;99.43;;;60.47;;
42866;SDS011;39461;40.948;73.006;2022-11-15T11:01:29;122.30;;;70.35;;
42866;SDS011;39461;40.948;73.006;2022-11-15T11:04:03;121.00;;;70.40;;
42866;SDS011;39461;40.948;73.006;2022-11-15T11:06:52;136.65;;;79.40;;
42866;SDS011;39461;40.948;73.006;2022-11-15T11:12:01;119.53;;;69.28;;
42866;SDS011;39461;40.948;73.006;2022-11-15T11:14:35;120.82;;;69.88;;
42866;SDS011;39461;40.948;73.006;2022-11-15T11:30:50;143.82;;;80.97;;
42866;SDS011;39461;40.948;73.006;2022-11-15T11:33:33;174.18;;;94.50;;
42866;SDS011;39461;40.948;73.006;2022-11-15T11:38:53;202.70;;;120.40;;
42866;SDS011;39461;40.948;73.006;2022-11-15T11:41:40;245.57;;;138.23;;
42866;SDS011;39461;40.948;73.006;2022-11-15T11:52:14;251.73;;;134.77;;
42866;SDS011;39461;40.948;73.006;2022-11-15T11:55:02;303.20;;;158.07;;
42866;SDS011;39461;40.948;73.006;2022-11-15T11:57:52;246.95;;;135.05;;
42866;SDS011;39461;40.948;73.006;2022-11-15T12:00:29;262.92;;;133.38;;
42866;SDS011;39461;40.948;73.006;2022-11-15T12:05:46;222.20;;;118.18;;
42866;SDS011;39461;40.948;73.006;2022-11-15T12:13:44;307.83;;;158.95;;
42866;SDS011;39461;40.948;73.006;2022-11-15T12:16:27;265.58;;;148.60;;
42866;SDS011;39461;40.948;73.006;2022-11-15T12:19:03;293.95;;;158.43;;
42866;SDS011;39461;40.948;73.006;2022-11-15T12:27:19;242.65;;;133.88;;
42866;SDS011;39461;40.948;73.006;2022-11-15T12:30:02;260.10;;;142.57;;
42866;SDS011;39461;40.948;73.006;2022-11-15T12:32:39;257.10;;;136.32;;
42866;SDS011;39461;40.948;73.006;2022-11-15T12:35:40;267.30;;;142.43;;
42866;SDS011;39461;40.948;73.006;2022-11-15T12:38:49;263.95;;;143.82;;
42866;SDS011;39461;40.948;73.006;2022-11-15T12:41:13;274.45;;;152.57;;
42866;SDS011;39461;40.948;73.006;2022-11-15T12:43:53;294.20;;;160.23;;
42866;SDS011;39461;40.948;73.006;2022-11-15T13:03:17;348.27;;;189.13;;
42866;SDS011;39461;40.948;73.006;2022-11-15T13:05:56;332.02;;;183.73;;
42866;SDS011;39461;40.948;73.006;2022-11-15T13:08:49;324.67;;;180.13;;
42866;SDS011;39461;40.948;73.006;2022-11-15T13:11:44;319.00;;;178.68;;
42866;SDS011;39461;40.948;73.006;2022-11-15T13:14:35;313.35;;;172.80;;
42866;SDS011;39461;40.948;73.006;2022-11-15T13:17:20;292.08;;;165.05;;
42866;SDS011;39461;40.948;73.006;2022-11-15T13:22:47;327.73;;;173.73;;
42866;SDS011;39461;40.948;73.006;2022-11-15T13:28:09;342.17;;;192.35;;
42866;SDS011;39461;40.948;73.006;2022-11-15T13:33:24;402.88;;;215.45;;
42866;SDS011;39461;40.948;73.006;2022-11-15T13:36:00;457.50;;;241.23;;
42866;SDS011;39461;40.948;73.006;2022-11-15T13:38:35;466.20;;;250.32;;
42866;SDS011;39461;40.948;73.006;2022-11-15T13:41:31;456.10;;;262.13;;
42866;SDS011;39461;40.948;73.006;2022-11-15T13:44:03;556.85;;;315.95;;
42866;SDS011;39461;40.948;73.006;2022-11-15T13:46:37;532.08;;;325.23;;
42866;SDS011;39461;40.948;73.006;2022-11-15T13:52:13;548.85;;;329.23;;
42866;SDS011;39461;40.948;73.006;2022-11-15T13:57:32;475.45;;;274.77;;
42866;SDS011;39461;40.948;73.006;2022-11-15T14:03:12;376.27;;;225.95;;
42866;SDS011;39461;40.948;73.006;2022-11-15T14:09:00;321.10;;;187.70;;
42866;SDS011;39461;40.948;73.006;2022-11-15T14:11:33;311.05;;;181.65;;
42866;SDS011;39461;40.948;73.006;2022-11-15T14:16:46;288.42;;;176.85;;
42866;SDS011;39461;40.948;73.006;2022-11-15T14:24:42;282.55;;;166.82;;
42866;SDS011;39461;40.948;73.006;2022-11-15T14:27:17;282.52;;;167.77;;
42866;SDS011;39461;40.948;73.006;2022-11-15T14:29:53;292.58;;;172.40;;
42866;SDS011;39461;40.948;73.006;2022-11-15T14:32:27;321.55;;;193.18;;
42866;SDS011;39461;40.948;73.006;2022-11-15T14:35:02;329.80;;;202.27;;
42866;SDS011;39461;40.948;73.006;2022-11-15T14:37:36;314.42;;;188.07;;
42866;SDS011;39461;40.948;73.006;2022-11-15T14:40:17;299.05;;;180.38;;
42866;SDS011;39461;40.948;73.006;2022-11-15T14:42:55;307.08;;;171.65;;
42866;SDS011;39461;40.948;73.006;2022-11-15T14:45:27;284.65;;;165.65;;
42866;SDS011;39461;40.948;73.006;2022-11-15T14:48:00;294.50;;;170.25;;
42866;SDS011;39461;40.948;73.006;2022-11-15T14:50:35;294.25;;;163.95;;
42866;SDS011;39461;40.948;73.006;2022-11-15T14:53:04;275.38;;;161.77;;
42866;SDS011;39461;40.948;73.006;2022-11-15T14:58:38;309.60;;;176.65;;
42866;SDS011;39461;40.948;73.006;2022-11-15T15:01:16;316.35;;;182.25;;
42866;SDS011;39461;40.948;73.006;2022-11-15T15:03:52;277.67;;;159.57;;
42866;SDS011;39461;40.948;73.006;2022-11-15T15:06:30;264.55;;;145.25;;
42866;SDS011;39461;40.948;73.006;2022-11-15T15:09:03;218.40;;;125.75;;
42866;SDS011;39461;40.948;73.006;2022-11-15T15:11:37;183.00;;;104.40;;
42866;SDS011;39461;40.948;73.006;2022-11-15T15:14:10;164.18;;;93.40;;
42866;SDS011;39461;40.948;73.006;2022-11-15T15:16:44;161.32;;;89.05;;
42866;SDS011;39461;40.948;73.006;2022-11-15T15:19:24;143.20;;;85.28;;
42866;SDS011;39461;40.948;73.006;2022-11-15T15:21:57;151.90;;;85.78;;
42866;SDS011;39461;40.948;73.006;2022-11-15T15:24:24;159.05;;;89.13;;
42866;SDS011;39461;40.948;73.006;2022-11-15T15:26:57;161.35;;;93.50;;
42866;SDS011;39461;40.948;73.006;2022-11-15T15:29:39;165.70;;;100.25;;
42866;SDS011;39461;40.948;73.006;2022-11-15T15:32:14;160.70;;;95.20;;
42866;SDS011;39461;40.948;73.006;2022-11-15T15:34:50;155.65;;;91.47;;
42866;SDS011;39461;40.948;73.006;2022-11-15T15:40:25;151.30;;;88.75;;
42866;SDS011;39461;40.948;73.006;2022-11-15T15:45:59;162.38;;;94.20;;
42866;SDS011;39461;40.948;73.006;2022-11-15T15:48:35;172.73;;;95.53;;
42866;SDS011;39461;40.948;73.006;2022-11-15T15:51:11;177.88;;;97.35;;
42866;SDS011;39461;40.948;73.006;2022-11-15T15:53:44;184.30;;;101.18;;
42866;SDS011;39461;40.948;73.006;2022-11-15T15:56:18;191.05;;;104.93;;
42866;SDS011;39461;40.948;73.006;2022-11-15T15:58:51;197.85;;;107.72;;
42866;SDS011;39461;40.948;73.006;2022-11-15T16:04:34;204.00;;;112.30;;
42866;SDS011;39461;40.948;73.006;2022-11-15T16:07:17;213.38;;;115.75;;
42866;SDS011;39461;40.948;73.006;2022-11-15T16:09:53;219.10;;;121.10;;
42866;SDS011;39461;40.948;73.006;2022-11-15T16:12:33;225.05;;;123.75;;
42866;SDS011;39461;40.948;73.006;2022-11-15T16:15:13;222.73;;;123.13;;
42866;SDS011;39461;40.948;73.006;2022-11-15T16:17:48;259.27;;;140.65;;
42866;SDS011;39461;40.948;73.006;2022-11-15T16:20:39;205.10;;;117.60;;
42866;SDS011;39461;40.948;73.006;2022-11-15T16:23:18;182.18;;;105.78;;
42866;SDS011;39461;40.948;73.006;2022-11-15T16:25:55;159.00;;;90.90;;
42866;SDS011;39461;40.948;73.006;2022-11-15T16:31:28;148.38;;;83.30;;
42866;SDS011;39461;40.948;73.006;2022-11-15T16:34:03;139.25;;;77.53;;
42866;SDS011;39461;40.948;73.006;2022-11-15T16:36:39;139.25;;;75.18;;
42866;SDS011;39461;40.948;73.006;2022-11-15T16:42:13;128.10;;;72.97;;
42866;SDS011;39461;40.948;73.006;2022-11-15T16:44:48;118.00;;;68.88;;
42866;SDS011;39461;40.948;73.006;2022-11-15T16:47:21;117.15;;;66.97;;
42866;SDS011;39461;40.948;73.006;2022-11-15T16:49:54;115.82;;;68.30;;
42866;SDS011;39461;40.948;73.006;2022-11-15T16:52:21;101.80;;;60.95;;
42866;SDS011;39461;40.948;73.006;2022-11-15T16:54:54;115.47;;;64.15;;
42866;SDS011;39461;40.948;73.006;2022-11-15T16:57:33;104.18;;;60.45;;
42866;SDS011;39461;40.948;73.006;2022-11-15T17:00:12;98.95;;;57.08;;
42866;SDS011;39461;40.948;73.006;2022-11-15T17:02:49;95.85;;;56.92;;
42866;SDS011;39461;40.948;73.006;2022-11-15T17:05:24;97.25;;;54.90;;
42866;SDS011;39461;40.948;73.006;2022-11-15T17:08:00;96.63;;;55.05;;
42866;SDS011;39461;40.948;73.006;2022-11-15T17:10:33;84.30;;;47.75;;
42866;SDS011;39461;40.948;73.006;2022-11-15T17:13:10;85.43;;;49.17;;
42866;SDS011;39461;40.948;73.006;2022-11-15T17:15:42;76.88;;;46.22;;
42866;SDS011;39461;40.948;73.006;2022-11-15T17:18:15;93.55;;;51.08;;
42866;SDS011;39461;40.948;73.006;2022-11-15T17:20:48;82.75;;;50.92;;
42866;SDS011;39461;40.948;73.006;2022-11-15T17:23:21;80.50;;;49.08;;
42866;SDS011;39461;40.948;73.006;2022-11-15T17:25:58;75.07;;;45.88;;
42866;SDS011;39461;40.948;73.006;2022-11-15T17:28:25;79.40;;;47.80;;
42866;SDS011;39461;40.948;73.006;2022-11-15T17:30:59;84.35;;;50.92;;
42866;SDS011;39461;40.948;73.006;2022-11-15T17:33:32;85.10;;;52.65;;
42866;SDS011;39461;40.948;73.006;2022-11-15T17:36:06;86.20;;;50.55;;
42866;SDS011;39461;40.948;73.006;2022-11-15T17:38:41;91.68;;;55.17;;
42866;SDS011;39461;40.948;73.006;2022-11-15T17:41:14;94.35;;;53.90;;
42866;SDS011;39461;40.948;73.006;2022-11-15T17:43:48;90.38;;;54.95;;
42866;SDS011;39461;40.948;73.006;2022-11-15T17:46:26;101.45;;;57.17;;
42866;SDS011;39461;40.948;73.006;2022-11-15T17:49:02;98.65;;;57.92;;